sensor_id;sensor_type;location;lat;lon;timestamp;temperature;humidity
28969;DHT22;16076;51.194;6.642;2022-08-16T00:01:55;22.70;99.90
28969;DHT22;16076;51.194;6.642;2022-08-16T00:04:21;22.70;99.90
28969;DHT22;16076;51.194;6.642;2022-08-16T00:06:47;22.70;99.90
28969;DHT22;16076;51.194;6.642;2022-08-16T00:09:13;22.60;99.90
28969;DHT22;16076;51.194;6.642;2022-08-16T00:11:43;22.70;99.90
28969;DHT22;16076;51.194;6.642;2022-08-16T00:14:16;22.70;99.90
28969;DHT22;16076;51.194;6.642;2022-08-16T00:16:45;22.70;99.90
28969;DHT22;16076;51.194;6.642;2022-08-16T00:19:16;22.70;99.90
28969;DHT22;16076;51.194;6.642;2022-08-16T00:21:43;22.70;99.90
28969;DHT22;16076;51.194;6.642;2022-08-16T00:24:09;22.70;99.90
28969;DHT22;16076;51.194;6.642;2022-08-16T00:26:42;22.70;99.90
28969;DHT22;16076;51.194;6.642;2022-08-16T00:29:09;22.70;99.90
28969;DHT22;16076;51.194;6.642;2022-08-16T00:31:35;22.70;99.90
28969;DHT22;16076;51.194;6.642;2022-08-16T00:34:01;22.70;99.90
28969;DHT22;16076;51.194;6.642;2022-08-16T00:36:29;22.70;99.90
28969;DHT22;16076;51.194;6.642;2022-08-16T00:38:56;22.80;99.90
28969;DHT22;16076;51.194;6.642;2022-08-16T00:41:23;22.80;99.90
28969;DHT22;16076;51.194;6.642;2022-08-16T00:43:51;22.80;99.90
28969;DHT22;16076;51.194;6.642;2022-08-16T00:46:25;22.80;99.90
28969;DHT22;16076;51.194;6.642;2022-08-16T00:48:53;22.70;99.90
28969;DHT22;16076;51.194;6.642;2022-08-16T00:51:21;22.70;99.90
28969;DHT22;16076;51.194;6.642;2022-08-16T00:53:48;22.70;99.90
28969;DHT22;16076;51.194;6.642;2022-08-16T00:56:19;22.70;99.90
28969;DHT22;16076;51.194;6.642;2022-08-16T00:58:47;22.60;99.90
28969;DHT22;16076;51.194;6.642;2022-08-16T01:01:16;22.70;99.90
28969;DHT22;16076;51.194;6.642;2022-08-16T01:03:49;22.70;99.90
28969;DHT22;16076;51.194;6.642;2022-08-16T01:06:16;22.60;99.90
28969;DHT22;16076;51.194;6.642;2022-08-16T01:08:45;22.60;99.90
28969;DHT22;16076;51.194;6.642;2022-08-16T01:11:12;22.50;99.90
28969;DHT22;16076;51.194;6.642;2022-08-16T01:13:39;22.40;99.90
28969;DHT22;16076;51.194;6.642;2022-08-16T01:16:18;22.30;99.90
28969;DHT22;16076;51.194;6.642;2022-08-16T01:18:49;22.10;99.90
28969;DHT22;16076;51.194;6.642;2022-08-16T01:26:29;21.90;99.90
28969;DHT22;16076;51.194;6.642;2022-08-16T01:29:01;21.90;99.90
28969;DHT22;16076;51.194;6.642;2022-08-16T01:31:27;21.80;99.90
28969;DHT22;16076;51.194;6.642;2022-08-16T01:33:54;21.70;99.90
28969;DHT22;16076;51.194;6.642;2022-08-16T01:36:20;21.60;99.90
28969;DHT22;16076;51.194;6.642;2022-08-16T01:38:48;21.50;99.90
28969;DHT22;16076;51.194;6.642;2022-08-16T01:41:19;21.40;99.90
28969;DHT22;16076;51.194;6.642;2022-08-16T01:43:46;21.30;99.90
28969;DHT22;16076;51.194;6.642;2022-08-16T01:48:48;21.10;99.90
28969;DHT22;16076;51.194;6.642;2022-08-16T01:51:17;21.00;99.90
28969;DHT22;16076;51.194;6.642;2022-08-16T01:53:45;21.00;99.90
28969;DHT22;16076;51.194;6.642;2022-08-16T01:56:11;20.90;99.90
28969;DHT22;16076;51.194;6.642;2022-08-16T01:58:36;20.80;99.90
28969;DHT22;16076;51.194;6.642;2022-08-16T02:01:03;20.70;99.90
28969;DHT22;16076;51.194;6.642;2022-08-16T02:03:29;20.60;99.90
28969;DHT22;16076;51.194;6.642;2022-08-16T02:05:57;20.60;99.90
28969;DHT22;16076;51.194;6.642;2022-08-16T02:08:25;20.50;99.90
28969;DHT22;16076;51.194;6.642;2022-08-16T02:10:53;20.40;99.90
28969;DHT22;16076;51.194;6.642;2022-08-16T02:13:20;20.40;99.90
28969;DHT22;16076;51.194;6.642;2022-08-16T02:15:46;20.40;99.90
28969;DHT22;16076;51.194;6.642;2022-08-16T02:18:12;20.30;99.90
28969;DHT22;16076;51.194;6.642;2022-08-16T02:20:39;20.20;99.90
28969;DHT22;16076;51.194;6.642;2022-08-16T02:23:06;20.20;99.90
28969;DHT22;16076;51.194;6.642;2022-08-16T02:25:33;20.20;99.90
28969;DHT22;16076;51.194;6.642;2022-08-16T02:27:59;20.20;99.90
28969;DHT22;16076;51.194;6.642;2022-08-16T02:30:28;20.10;99.90
28969;DHT22;16076;51.194;6.642;2022-08-16T02:32:57;20.10;99.90
28969;DHT22;16076;51.194;6.642;2022-08-16T02:35:24;20.00;99.90
28969;DHT22;16076;51.194;6.642;2022-08-16T02:37:52;20.00;99.90
28969;DHT22;16076;51.194;6.642;2022-08-16T02:40:20;20.00;99.90
28969;DHT22;16076;51.194;6.642;2022-08-16T02:42:49;20.00;99.90
28969;DHT22;16076;51.194;6.642;2022-08-16T02:45:20;20.00;99.90
28969;DHT22;16076;51.194;6.642;2022-08-16T02:47:46;19.90;99.90
28969;DHT22;16076;51.194;6.642;2022-08-16T02:50:11;19.80;99.90
28969;DHT22;16076;51.194;6.642;2022-08-16T02:52:39;19.80;99.90
28969;DHT22;16076;51.194;6.642;2022-08-16T02:55:06;19.80;99.90
28969;DHT22;16076;51.194;6.642;2022-08-16T02:57:33;19.70;99.90
28969;DHT22;16076;51.194;6.642;2022-08-16T03:00:00;19.70;99.90
28969;DHT22;16076;51.194;6.642;2022-08-16T03:02:28;19.60;99.90
28969;DHT22;16076;51.194;6.642;2022-08-16T03:04:56;19.60;99.90
28969;DHT22;16076;51.194;6.642;2022-08-16T03:07:25;19.50;99.90
28969;DHT22;16076;51.194;6.642;2022-08-16T03:09:51;19.40;99.90
28969;DHT22;16076;51.194;6.642;2022-08-16T03:12:17;19.40;99.90
28969;DHT22;16076;51.194;6.642;2022-08-16T03:14:44;19.40;99.90
28969;DHT22;16076;51.194;6.642;2022-08-16T03:17:09;19.40;99.90
28969;DHT22;16076;51.194;6.642;2022-08-16T03:19:38;19.50;99.90
28969;DHT22;16076;51.194;6.642;2022-08-16T03:22:06;19.40;99.90
28969;DHT22;16076;51.194;6.642;2022-08-16T03:24:32;19.50;99.90
28969;DHT22;16076;51.194;6.642;2022-08-16T03:26:59;19.40;99.90
28969;DHT22;16076;51.194;6.642;2022-08-16T03:29:27;19.40;99.90
28969;DHT22;16076;51.194;6.642;2022-08-16T03:31:56;19.40;99.90
28969;DHT22;16076;51.194;6.642;2022-08-16T03:34:21;19.40;99.90
28969;DHT22;16076;51.194;6.642;2022-08-16T03:36:47;19.40;99.90
28969;DHT22;16076;51.194;6.642;2022-08-16T03:39:13;19.40;99.90
28969;DHT22;16076;51.194;6.642;2022-08-16T03:41:39;19.30;99.90
28969;DHT22;16076;51.194;6.642;2022-08-16T03:44:06;19.30;99.90
28969;DHT22;16076;51.194;6.642;2022-08-16T03:46:35;19.30;99.90
28969;DHT22;16076;51.194;6.642;2022-08-16T03:49:01;19.20;99.90
28969;DHT22;16076;51.194;6.642;2022-08-16T03:51:27;19.20;99.90
28969;DHT22;16076;51.194;6.642;2022-08-16T03:53:52;19.20;99.90
28969;DHT22;16076;51.194;6.642;2022-08-16T03:56:18;19.20;99.90
28969;DHT22;16076;51.194;6.642;2022-08-16T03:58:44;19.20;99.90
28969;DHT22;16076;51.194;6.642;2022-08-16T04:01:10;19.20;99.90
28969;DHT22;16076;51.194;6.642;2022-08-16T04:03:36;19.20;99.90
28969;DHT22;16076;51.194;6.642;2022-08-16T04:06:02;19.20;99.90
28969;DHT22;16076;51.194;6.642;2022-08-16T04:08:28;19.20;99.90
28969;DHT22;16076;51.194;6.642;2022-08-16T04:10:56;19.10;99.90
28969;DHT22;16076;51.194;6.642;2022-08-16T04:13:22;19.00;99.90
28969;DHT22;16076;51.194;6.642;2022-08-16T04:15:51;19.00;99.90
28969;DHT22;16076;51.194;6.642;2022-08-16T04:18:24;19.00;99.90
28969;DHT22;16076;51.194;6.642;2022-08-16T04:20:50;18.90;99.90
28969;DHT22;16076;51.194;6.642;2022-08-16T04:23:15;18.90;99.90
28969;DHT22;16076;51.194;6.642;2022-08-16T04:25:43;19.00;99.90
28969;DHT22;16076;51.194;6.642;2022-08-16T04:28:12;18.90;99.90
28969;DHT22;16076;51.194;6.642;2022-08-16T04:30:38;18.90;99.90
28969;DHT22;16076;51.194;6.642;2022-08-16T04:33:05;18.90;99.90
28969;DHT22;16076;51.194;6.642;2022-08-16T04:35:31;19.00;99.90
28969;DHT22;16076;51.194;6.642;2022-08-16T04:37:57;19.00;99.90
28969;DHT22;16076;51.194;6.642;2022-08-16T04:40:25;19.00;99.90
28969;DHT22;16076;51.194;6.642;2022-08-16T04:42:54;19.00;99.90
28969;DHT22;16076;51.194;6.642;2022-08-16T04:45:21;19.00;99.90
28969;DHT22;16076;51.194;6.642;2022-08-16T04:47:47;19.10;99.90
28969;DHT22;16076;51.194;6.642;2022-08-16T04:50:21;19.20;99.90
28969;DHT22;16076;51.194;6.642;2022-08-16T04:52:49;19.20;99.90
28969;DHT22;16076;51.194;6.642;2022-08-16T04:55:20;19.20;99.90
28969;DHT22;16076;51.194;6.642;2022-08-16T04:57:51;19.30;99.90
28969;DHT22;16076;51.194;6.642;2022-08-16T05:00:21;19.30;99.90
28969;DHT22;16076;51.194;6.642;2022-08-16T05:02:53;19.30;99.90
28969;DHT22;16076;51.194;6.642;2022-08-16T05:05:20;19.30;99.90
28969;DHT22;16076;51.194;6.642;2022-08-16T05:07:47;19.30;99.90
28969;DHT22;16076;51.194;6.642;2022-08-16T05:10:16;19.40;99.90
28969;DHT22;16076;51.194;6.642;2022-08-16T05:12:41;19.50;99.90
28969;DHT22;16076;51.194;6.642;2022-08-16T05:15:08;19.60;99.90
28969;DHT22;16076;51.194;6.642;2022-08-16T05:17:37;19.60;99.90
28969;DHT22;16076;51.194;6.642;2022-08-16T05:20:04;19.70;99.90
28969;DHT22;16076;51.194;6.642;2022-08-16T05:22:31;19.70;99.90
28969;DHT22;16076;51.194;6.642;2022-08-16T05:24:57;19.80;99.90
28969;DHT22;16076;51.194;6.642;2022-08-16T05:27:27;19.80;99.90
28969;DHT22;16076;51.194;6.642;2022-08-16T05:29:53;19.90;99.90
28969;DHT22;16076;51.194;6.642;2022-08-16T05:32:19;19.90;99.90
28969;DHT22;16076;51.194;6.642;2022-08-16T05:34:45;20.00;99.90
28969;DHT22;16076;51.194;6.642;2022-08-16T05:37:11;20.00;99.90
28969;DHT22;16076;51.194;6.642;2022-08-16T05:39:36;20.10;99.90
28969;DHT22;16076;51.194;6.642;2022-08-16T05:42:02;20.10;99.90
28969;DHT22;16076;51.194;6.642;2022-08-16T05:44:28;20.20;99.90
28969;DHT22;16076;51.194;6.642;2022-08-16T05:46:58;20.30;99.90
28969;DHT22;16076;51.194;6.642;2022-08-16T05:49:26;20.40;99.90
28969;DHT22;16076;51.194;6.642;2022-08-16T05:51:52;20.50;99.90
28969;DHT22;16076;51.194;6.642;2022-08-16T05:54:20;20.60;99.90
28969;DHT22;16076;51.194;6.642;2022-08-16T05:56:46;20.70;99.90
28969;DHT22;16076;51.194;6.642;2022-08-16T05:59:14;20.80;99.90
28969;DHT22;16076;51.194;6.642;2022-08-16T06:01:41;20.90;99.90
28969;DHT22;16076;51.194;6.642;2022-08-16T06:04:10;21.00;99.90
28969;DHT22;16076;51.194;6.642;2022-08-16T06:06:36;21.10;99.90
28969;DHT22;16076;51.194;6.642;2022-08-16T06:09:02;21.20;99.90
28969;DHT22;16076;51.194;6.642;2022-08-16T06:11:28;21.30;99.90
28969;DHT22;16076;51.194;6.642;2022-08-16T06:13:54;21.40;99.90
28969;DHT22;16076;51.194;6.642;2022-08-16T06:16:19;21.40;99.90
28969;DHT22;16076;51.194;6.642;2022-08-16T06:18:46;21.50;99.90
28969;DHT22;16076;51.194;6.642;2022-08-16T06:21:16;21.60;99.90
28969;DHT22;16076;51.194;6.642;2022-08-16T06:23:42;21.70;99.90
28969;DHT22;16076;51.194;6.642;2022-08-16T06:26:07;21.80;99.90
28969;DHT22;16076;51.194;6.642;2022-08-16T06:28:36;21.90;99.90
28969;DHT22;16076;51.194;6.642;2022-08-16T06:31:02;22.10;99.90
28969;DHT22;16076;51.194;6.642;2022-08-16T06:33:28;22.20;99.90
28969;DHT22;16076;51.194;6.642;2022-08-16T06:35:54;22.30;99.90
28969;DHT22;16076;51.194;6.642;2022-08-16T06:38:21;22.40;99.90
28969;DHT22;16076;51.194;6.642;2022-08-16T06:40:48;22.50;99.90
28969;DHT22;16076;51.194;6.642;2022-08-16T06:43:13;22.60;99.90
28969;DHT22;16076;51.194;6.642;2022-08-16T06:45:40;22.70;99.90
28969;DHT22;16076;51.194;6.642;2022-08-16T06:48:12;22.90;99.90
28969;DHT22;16076;51.194;6.642;2022-08-16T06:50:40;22.90;99.90
28969;DHT22;16076;51.194;6.642;2022-08-16T06:53:06;23.00;99.90
28969;DHT22;16076;51.194;6.642;2022-08-16T06:55:32;23.10;99.90
28969;DHT22;16076;51.194;6.642;2022-08-16T06:57:59;23.20;99.90
28969;DHT22;16076;51.194;6.642;2022-08-16T07:00:26;23.30;99.90
28969;DHT22;16076;51.194;6.642;2022-08-16T07:02:52;23.40;99.90
28969;DHT22;16076;51.194;6.642;2022-08-16T07:05:19;23.30;99.90
28969;DHT22;16076;51.194;6.642;2022-08-16T07:07:46;23.30;99.90
28969;DHT22;16076;51.194;6.642;2022-08-16T07:10:13;23.30;99.90
28969;DHT22;16076;51.194;6.642;2022-08-16T07:12:40;23.40;99.90
28969;DHT22;16076;51.194;6.642;2022-08-16T07:15:06;23.50;99.90
28969;DHT22;16076;51.194;6.642;2022-08-16T07:17:33;23.70;99.90
28969;DHT22;16076;51.194;6.642;2022-08-16T07:20:01;23.70;99.90
28969;DHT22;16076;51.194;6.642;2022-08-16T07:22:27;23.80;99.90
28969;DHT22;16076;51.194;6.642;2022-08-16T07:24:53;23.90;99.90
28969;DHT22;16076;51.194;6.642;2022-08-16T07:27:19;24.00;99.90
28969;DHT22;16076;51.194;6.642;2022-08-16T07:29:44;24.20;99.90
28969;DHT22;16076;51.194;6.642;2022-08-16T07:32:12;24.20;99.90
28969;DHT22;16076;51.194;6.642;2022-08-16T07:34:38;24.30;99.90
28969;DHT22;16076;51.194;6.642;2022-08-16T07:37:09;24.30;99.90
28969;DHT22;16076;51.194;6.642;2022-08-16T07:39:36;24.40;99.90
28969;DHT22;16076;51.194;6.642;2022-08-16T07:42:03;24.40;99.90
28969;DHT22;16076;51.194;6.642;2022-08-16T07:44:31;24.40;99.90
28969;DHT22;16076;51.194;6.642;2022-08-16T07:46:57;24.50;99.90
28969;DHT22;16076;51.194;6.642;2022-08-16T07:49:23;24.50;99.90
28969;DHT22;16076;51.194;6.642;2022-08-16T07:51:49;24.60;99.90
28969;DHT22;16076;51.194;6.642;2022-08-16T07:54:17;24.70;99.90
28969;DHT22;16076;51.194;6.642;2022-08-16T07:56:44;24.80;99.90
28969;DHT22;16076;51.194;6.642;2022-08-16T07:59:09;24.90;99.90
28969;DHT22;16076;51.194;6.642;2022-08-16T08:01:35;25.00;99.90
28969;DHT22;16076;51.194;6.642;2022-08-16T08:04:04;25.00;99.90
28969;DHT22;16076;51.194;6.642;2022-08-16T08:06:32;25.10;99.90
28969;DHT22;16076;51.194;6.642;2022-08-16T08:08:59;25.20;99.90
28969;DHT22;16076;51.194;6.642;2022-08-16T08:11:25;25.20;99.90
28969;DHT22;16076;51.194;6.642;2022-08-16T08:13:53;25.30;99.90
28969;DHT22;16076;51.194;6.642;2022-08-16T08:16:19;25.50;99.90
28969;DHT22;16076;51.194;6.642;2022-08-16T08:18:48;25.70;99.90
28969;DHT22;16076;51.194;6.642;2022-08-16T08:21:14;25.80;99.90
28969;DHT22;16076;51.194;6.642;2022-08-16T08:23:44;25.90;99.90
28969;DHT22;16076;51.194;6.642;2022-08-16T08:26:13;26.00;99.90
28969;DHT22;16076;51.194;6.642;2022-08-16T08:28:40;26.10;99.90
28969;DHT22;16076;51.194;6.642;2022-08-16T08:31:06;26.20;99.90
28969;DHT22;16076;51.194;6.642;2022-08-16T08:33:32;26.30;99.90
28969;DHT22;16076;51.194;6.642;2022-08-16T08:36:03;26.30;99.90
28969;DHT22;16076;51.194;6.642;2022-08-16T08:38:34;26.40;99.90
28969;DHT22;16076;51.194;6.642;2022-08-16T08:41:00;26.40;99.90
28969;DHT22;16076;51.194;6.642;2022-08-16T08:43:29;26.50;99.90
28969;DHT22;16076;51.194;6.642;2022-08-16T08:45:55;26.50;99.90
28969;DHT22;16076;51.194;6.642;2022-08-16T08:48:23;26.60;99.90
28969;DHT22;16076;51.194;6.642;2022-08-16T08:50:49;26.60;99.90
28969;DHT22;16076;51.194;6.642;2022-08-16T08:53:18;26.60;99.80
28969;DHT22;16076;51.194;6.642;2022-08-16T08:55:43;26.70;99.40
28969;DHT22;16076;51.194;6.642;2022-08-16T08:58:14;26.60;99.90
28969;DHT22;16076;51.194;6.642;2022-08-16T09:00:40;26.70;99.90
28969;DHT22;16076;51.194;6.642;2022-08-16T09:03:06;26.90;99.70
28969;DHT22;16076;51.194;6.642;2022-08-16T09:05:34;27.10;99.40
28969;DHT22;16076;51.194;6.642;2022-08-16T09:08:00;27.20;99.00
28969;DHT22;16076;51.194;6.642;2022-08-16T09:10:26;27.40;98.60
28969;DHT22;16076;51.194;6.642;2022-08-16T09:12:52;27.50;97.80
28969;DHT22;16076;51.194;6.642;2022-08-16T09:15:17;27.60;97.70
28969;DHT22;16076;51.194;6.642;2022-08-16T09:17:45;27.70;96.90
28969;DHT22;16076;51.194;6.642;2022-08-16T09:20:12;27.60;97.00
28969;DHT22;16076;51.194;6.642;2022-08-16T09:22:39;27.60;96.90
28969;DHT22;16076;51.194;6.642;2022-08-16T09:25:06;27.70;97.10
28969;DHT22;16076;51.194;6.642;2022-08-16T09:27:35;27.80;96.00
28969;DHT22;16076;51.194;6.642;2022-08-16T09:30:03;27.90;96.20
28969;DHT22;16076;51.194;6.642;2022-08-16T09:32:29;28.00;95.30
28969;DHT22;16076;51.194;6.642;2022-08-16T09:34:55;28.10;95.20
28969;DHT22;16076;51.194;6.642;2022-08-16T09:37:24;28.20;95.00
28969;DHT22;16076;51.194;6.642;2022-08-16T09:39:50;28.30;94.90
28969;DHT22;16076;51.194;6.642;2022-08-16T09:42:16;28.50;94.80
28969;DHT22;16076;51.194;6.642;2022-08-16T09:44:44;28.50;94.50
28969;DHT22;16076;51.194;6.642;2022-08-16T09:47:11;28.70;94.40
28969;DHT22;16076;51.194;6.642;2022-08-16T09:49:36;28.80;94.20
28969;DHT22;16076;51.194;6.642;2022-08-16T09:52:02;28.90;93.90
28969;DHT22;16076;51.194;6.642;2022-08-16T09:54:29;29.00;93.40
28969;DHT22;16076;51.194;6.642;2022-08-16T09:56:55;29.10;92.90
28969;DHT22;16076;51.194;6.642;2022-08-16T09:59:22;29.20;93.00
28969;DHT22;16076;51.194;6.642;2022-08-16T10:01:52;29.10;92.30
28969;DHT22;16076;51.194;6.642;2022-08-16T10:04:20;29.00;91.40
28969;DHT22;16076;51.194;6.642;2022-08-16T10:06:46;28.90;91.80
28969;DHT22;16076;51.194;6.642;2022-08-16T10:09:13;28.90;92.30
28969;DHT22;16076;51.194;6.642;2022-08-16T10:11:41;29.00;92.30
28969;DHT22;16076;51.194;6.642;2022-08-16T10:14:25;29.10;92.30
28969;DHT22;16076;51.194;6.642;2022-08-16T10:16:56;29.10;91.20
28969;DHT22;16076;51.194;6.642;2022-08-16T10:19:27;29.20;91.40
28969;DHT22;16076;51.194;6.642;2022-08-16T10:21:54;29.20;90.60
28969;DHT22;16076;51.194;6.642;2022-08-16T10:24:20;29.20;90.90
28969;DHT22;16076;51.194;6.642;2022-08-16T10:26:47;29.30;90.50
28969;DHT22;16076;51.194;6.642;2022-08-16T10:29:13;29.50;90.50
28969;DHT22;16076;51.194;6.642;2022-08-16T10:31:39;29.60;90.30
28969;DHT22;16076;51.194;6.642;2022-08-16T10:34:05;29.60;90.00
28969;DHT22;16076;51.194;6.642;2022-08-16T10:36:31;29.60;89.40
28969;DHT22;16076;51.194;6.642;2022-08-16T10:38:59;29.70;90.00
28969;DHT22;16076;51.194;6.642;2022-08-16T10:41:25;29.70;89.40
28969;DHT22;16076;51.194;6.642;2022-08-16T10:43:54;29.60;87.40
28969;DHT22;16076;51.194;6.642;2022-08-16T10:46:19;29.60;88.30
28969;DHT22;16076;51.194;6.642;2022-08-16T10:48:48;29.80;87.90
28969;DHT22;16076;51.194;6.642;2022-08-16T10:51:14;29.90;86.90
28969;DHT22;16076;51.194;6.642;2022-08-16T10:53:43;29.90;85.10
28969;DHT22;16076;51.194;6.642;2022-08-16T10:56:11;29.80;85.80
28969;DHT22;16076;51.194;6.642;2022-08-16T10:58:39;29.90;86.00
28969;DHT22;16076;51.194;6.642;2022-08-16T11:01:07;29.80;86.60
28969;DHT22;16076;51.194;6.642;2022-08-16T11:03:37;29.90;87.20
28969;DHT22;16076;51.194;6.642;2022-08-16T11:06:07;30.00;85.80
28969;DHT22;16076;51.194;6.642;2022-08-16T11:08:37;30.00;85.20
28969;DHT22;16076;51.194;6.642;2022-08-16T11:11:07;30.00;85.10
28969;DHT22;16076;51.194;6.642;2022-08-16T11:13:33;30.20;84.10
28969;DHT22;16076;51.194;6.642;2022-08-16T11:15:59;30.40;83.30
28969;DHT22;16076;51.194;6.642;2022-08-16T11:18:28;30.50;83.60
28969;DHT22;16076;51.194;6.642;2022-08-16T11:20:54;30.70;82.00
28969;DHT22;16076;51.194;6.642;2022-08-16T11:23:24;30.80;79.60
28969;DHT22;16076;51.194;6.642;2022-08-16T11:25:51;30.80;79.50
28969;DHT22;16076;51.194;6.642;2022-08-16T11:28:17;30.80;78.30
28969;DHT22;16076;51.194;6.642;2022-08-16T11:30:44;30.90;79.70
28969;DHT22;16076;51.194;6.642;2022-08-16T11:33:11;31.10;80.60
28969;DHT22;16076;51.194;6.642;2022-08-16T11:35:38;31.30;80.40
28969;DHT22;16076;51.194;6.642;2022-08-16T11:38:09;31.60;80.20
28969;DHT22;16076;51.194;6.642;2022-08-16T11:40:40;31.90;77.80
28969;DHT22;16076;51.194;6.642;2022-08-16T11:43:08;31.90;77.10
28969;DHT22;16076;51.194;6.642;2022-08-16T11:45:34;32.10;75.00
28969;DHT22;16076;51.194;6.642;2022-08-16T11:48:04;32.20;74.70
28969;DHT22;16076;51.194;6.642;2022-08-16T11:50:30;32.30;74.90
28969;DHT22;16076;51.194;6.642;2022-08-16T11:53:00;32.20;74.00
28969;DHT22;16076;51.194;6.642;2022-08-16T11:55:26;32.20;74.30
28969;DHT22;16076;51.194;6.642;2022-08-16T11:57:52;32.20;74.80
28969;DHT22;16076;51.194;6.642;2022-08-16T12:00:18;32.50;75.20
28969;DHT22;16076;51.194;6.642;2022-08-16T12:02:44;32.70;72.00
28969;DHT22;16076;51.194;6.642;2022-08-16T12:05:13;32.80;71.70
28969;DHT22;16076;51.194;6.642;2022-08-16T12:07:42;33.10;70.90
28969;DHT22;16076;51.194;6.642;2022-08-16T12:10:13;33.30;70.90
28969;DHT22;16076;51.194;6.642;2022-08-16T12:12:41;33.50;68.80
28969;DHT22;16076;51.194;6.642;2022-08-16T12:15:08;33.50;67.10
28969;DHT22;16076;51.194;6.642;2022-08-16T12:17:35;33.40;66.40
28969;DHT22;16076;51.194;6.642;2022-08-16T12:20:08;33.20;66.80
28969;DHT22;16076;51.194;6.642;2022-08-16T12:22:35;33.10;67.20
28969;DHT22;16076;51.194;6.642;2022-08-16T12:25:04;33.10;67.20
28969;DHT22;16076;51.194;6.642;2022-08-16T12:27:30;33.10;67.60
28969;DHT22;16076;51.194;6.642;2022-08-16T12:29:58;33.10;66.30
28969;DHT22;16076;51.194;6.642;2022-08-16T12:32:24;33.20;66.20
28969;DHT22;16076;51.194;6.642;2022-08-16T12:34:50;33.20;65.90
28969;DHT22;16076;51.194;6.642;2022-08-16T12:37:16;33.20;65.30
28969;DHT22;16076;51.194;6.642;2022-08-16T12:39:42;33.20;64.10
28969;DHT22;16076;51.194;6.642;2022-08-16T12:42:08;33.10;64.20
28969;DHT22;16076;51.194;6.642;2022-08-16T12:44:35;33.00;64.70
28969;DHT22;16076;51.194;6.642;2022-08-16T12:47:07;32.90;64.90
28969;DHT22;16076;51.194;6.642;2022-08-16T12:49:52;33.00;67.70
28969;DHT22;16076;51.194;6.642;2022-08-16T12:52:18;33.40;64.20
28969;DHT22;16076;51.194;6.642;2022-08-16T12:54:45;33.50;63.30
28969;DHT22;16076;51.194;6.642;2022-08-16T12:57:11;33.50;62.60
28969;DHT22;16076;51.194;6.642;2022-08-16T12:59:41;33.60;63.20
28969;DHT22;16076;51.194;6.642;2022-08-16T13:02:07;34.00;63.60
28969;DHT22;16076;51.194;6.642;2022-08-16T13:04:36;34.60;60.40
28969;DHT22;16076;51.194;6.642;2022-08-16T13:07:03;35.00;60.00
28969;DHT22;16076;51.194;6.642;2022-08-16T13:09:30;35.20;58.80
28969;DHT22;16076;51.194;6.642;2022-08-16T13:12:07;35.10;58.40
28969;DHT22;16076;51.194;6.642;2022-08-16T13:14:43;34.90;57.20
28969;DHT22;16076;51.194;6.642;2022-08-16T13:17:13;34.80;57.30
28969;DHT22;16076;51.194;6.642;2022-08-16T13:19:39;35.50;56.50
28969;DHT22;16076;51.194;6.642;2022-08-16T13:22:05;36.70;54.60
28969;DHT22;16076;51.194;6.642;2022-08-16T13:24:34;37.80;52.40
28969;DHT22;16076;51.194;6.642;2022-08-16T13:27:02;39.10;52.40
28969;DHT22;16076;51.194;6.642;2022-08-16T13:29:28;40.00;50.10
28969;DHT22;16076;51.194;6.642;2022-08-16T13:31:57;41.10;48.70
28969;DHT22;16076;51.194;6.642;2022-08-16T13:34:26;42.10;47.30
28969;DHT22;16076;51.194;6.642;2022-08-16T13:36:51;42.90;45.20
28969;DHT22;16076;51.194;6.642;2022-08-16T13:39:17;43.60;43.10
28969;DHT22;16076;51.194;6.642;2022-08-16T13:41:43;43.90;42.00
28969;DHT22;16076;51.194;6.642;2022-08-16T13:44:09;44.20;42.60
28969;DHT22;16076;51.194;6.642;2022-08-16T13:46:35;44.70;40.20
28969;DHT22;16076;51.194;6.642;2022-08-16T13:49:04;44.80;39.20
28969;DHT22;16076;51.194;6.642;2022-08-16T13:51:32;44.60;38.50
28969;DHT22;16076;51.194;6.642;2022-08-16T13:54:02;44.20;38.20
28969;DHT22;16076;51.194;6.642;2022-08-16T13:56:29;43.50;38.80
28969;DHT22;16076;51.194;6.642;2022-08-16T13:58:58;42.40;39.40
28969;DHT22;16076;51.194;6.642;2022-08-16T14:01:24;41.20;40.30
28969;DHT22;16076;51.194;6.642;2022-08-16T14:03:50;39.80;41.00
28969;DHT22;16076;51.194;6.642;2022-08-16T14:06:15;38.60;42.50
28969;DHT22;16076;51.194;6.642;2022-08-16T14:08:42;37.50;44.50
28969;DHT22;16076;51.194;6.642;2022-08-16T14:11:10;36.80;46.10
28969;DHT22;16076;51.194;6.642;2022-08-16T14:13:37;36.30;46.50
28969;DHT22;16076;51.194;6.642;2022-08-16T14:16:03;36.10;47.50
28969;DHT22;16076;51.194;6.642;2022-08-16T14:18:29;36.40;48.70
28969;DHT22;16076;51.194;6.642;2022-08-16T14:20:55;37.60;45.10
28969;DHT22;16076;51.194;6.642;2022-08-16T14:23:20;38.80;44.80
28969;DHT22;16076;51.194;6.642;2022-08-16T14:25:46;39.50;43.20
28969;DHT22;16076;51.194;6.642;2022-08-16T14:28:12;40.00;42.30
28969;DHT22;16076;51.194;6.642;2022-08-16T14:30:38;39.80;42.10
28969;DHT22;16076;51.194;6.642;2022-08-16T14:33:06;39.40;42.20
28969;DHT22;16076;51.194;6.642;2022-08-16T14:35:32;38.60;42.70
28969;DHT22;16076;51.194;6.642;2022-08-16T14:37:59;37.80;43.70
28969;DHT22;16076;51.194;6.642;2022-08-16T14:40:26;36.90;45.10
28969;DHT22;16076;51.194;6.642;2022-08-16T14:42:52;36.40;45.80
28969;DHT22;16076;51.194;6.642;2022-08-16T14:45:22;36.30;46.30
28969;DHT22;16076;51.194;6.642;2022-08-16T14:47:49;36.60;45.90
28969;DHT22;16076;51.194;6.642;2022-08-16T14:50:18;36.60;46.00
28969;DHT22;16076;51.194;6.642;2022-08-16T14:52:56;36.60;45.60
28969;DHT22;16076;51.194;6.642;2022-08-16T14:55:27;36.40;45.40
28969;DHT22;16076;51.194;6.642;2022-08-16T14:57:53;36.50;45.60
28969;DHT22;16076;51.194;6.642;2022-08-16T15:00:19;36.40;45.10
28969;DHT22;16076;51.194;6.642;2022-08-16T15:02:52;36.20;45.30
28969;DHT22;16076;51.194;6.642;2022-08-16T15:05:23;36.00;46.20
28969;DHT22;16076;51.194;6.642;2022-08-16T15:07:50;35.90;47.30
28969;DHT22;16076;51.194;6.642;2022-08-16T15:10:18;36.00;47.00
28969;DHT22;16076;51.194;6.642;2022-08-16T15:12:44;35.90;46.00
28969;DHT22;16076;51.194;6.642;2022-08-16T15:15:13;35.80;46.10
28969;DHT22;16076;51.194;6.642;2022-08-16T15:17:58;35.50;46.40
28969;DHT22;16076;51.194;6.642;2022-08-16T15:20:43;35.40;46.30
28969;DHT22;16076;51.194;6.642;2022-08-16T15:23:11;35.20;47.10
28969;DHT22;16076;51.194;6.642;2022-08-16T15:25:40;35.00;47.70
28969;DHT22;16076;51.194;6.642;2022-08-16T15:28:08;34.80;47.70
28969;DHT22;16076;51.194;6.642;2022-08-16T15:30:36;34.60;48.10
28969;DHT22;16076;51.194;6.642;2022-08-16T15:33:09;34.50;48.50
28969;DHT22;16076;51.194;6.642;2022-08-16T15:35:36;34.30;48.60
28969;DHT22;16076;51.194;6.642;2022-08-16T15:38:03;34.50;48.30
28969;DHT22;16076;51.194;6.642;2022-08-16T15:40:31;34.50;48.20